Terminal Aerodrome Forecast
Issued by NWS

Home | Current Version | Previous Version | Text Only | Print | Product List | Glossary On
Versions: 1 2 3 4 5 6 7 8 9 10 11 12 13 14 15 16 17 18 19 20 21 22 23 24 25 26 27 28 29 30 31 32 33 34 35 36 37 38 39 40 41 42 43 44 45 46 47 48 49 50
000
FTUS43 KDDC 221550 AAE
TAFHYS
TAF AMD
KHYS 221550Z 2216/2312 33032G45KT 1/2SM SN BLSN BKN008 OVC014
     FM221800 33030G42KT 3SM BLSN SCT015
     FM222000 32020G30KT P6SM SCT070
     FM230200 32010KT P6SM SKC=

USA.gov is the U.S. government's official web portal to all federal, state and local government web resources and services.